PWSweather.com
Personal Weather Stations
Station Observations
KILMORRI1
Goose Lake, Morris, IL 60450

Goose LakeMorris, IL 60450

Lat: 41.34, Lon: -88.3

Elevation: 523

Station Type:

www.gooselakeweather.com

High Low Average
Temperature 35.3°F1.8°C 14.9°F-9.5°C 26.7°F-2.9°C
Dew Point 33.2°F0.7°C 6.0°F-14.4°C 21.5°F-5.8°C
Winds 10.4 mph 16.7 kmh 1.2 mph 1.9 kmh 5.0 mph SSE8.0 kmh SSE
Wind Gusts 18.4 mph29.6 kmh 2.3 mph3.7 kmh 9.0 mph14.5 kmh
Humidity 92% 67% 81%
Pressure 30.36 in1028.1 mb 29.86 in1011.2 mb -
Precipitation 0.26 in6.6 mm - -
Hour Temp Dew Point Humidity Winds Wind Gusts Pressure Precip Precip Rate Daily Precip Total
12:00 AM 14.9°F-9.5°C 6.2°F-14.3°C 68% 8.1 mph ESE13.0 kmh ESE 18.4 mph29.6 kmh 30.36 in1028.1 mb - 0.00 in0.0 mm 0.00 in0.0 mm
12:10 AM 15.0°F-9.4°C 6.0°F-14.4°C 67% 8.1 mph SE13.0 kmh SE 10.4 mph16.7 kmh 30.36 in1028.1 mb - 0.00 in0.0 mm 0.00 in0.0 mm
12:20 AM 15.2°F-9.3°C 6.2°F-14.3°C 67% 9.2 mph ESE14.8 kmh ESE 12.7 mph20.4 kmh 30.35 in1027.8 mb - 0.00 in0.0 mm 0.00 in0.0 mm
12:30 AM 15.2°F-9.3°C 6.2°F-14.3°C 67% 5.8 mph ESE9.3 kmh ESE 8.1 mph13.0 kmh 30.35 in1027.8 mb - 0.00 in0.0 mm 0.00 in0.0 mm
12:40 AM 15.3°F-9.3°C 6.3°F-14.3°C 67% 6.9 mph SE11.1 kmh SE 12.7 mph20.4 kmh 30.35 in1027.8 mb - 0.00 in0.0 mm 0.00 in0.0 mm
12:50 AM 15.3°F-9.3°C 6.6°F-14.1°C 68% 6.9 mph SE11.1 kmh SE 10.4 mph16.7 kmh 30.35 in1027.8 mb - 0.00 in0.0 mm 0.00 in0.0 mm
01:00 AM 15.4°F-9.2°C 6.7°F-14.1°C 68% 5.8 mph SE9.3 kmh SE 12.7 mph20.4 kmh 30.34 in1027.4 mb - 0.00 in0.0 mm 0.00 in0.0 mm
01:10 AM 15.5°F-9.2°C 6.8°F-14.0°C 68% 5.8 mph ESE9.3 kmh ESE 8.1 mph13.0 kmh 30.34 in1027.4 mb - 0.00 in0.0 mm 0.00 in0.0 mm
01:20 AM 15.5°F-9.2°C 7.1°F-13.8°C 69% 4.6 mph SE7.4 kmh SE 9.2 mph14.8 kmh 30.34 in1027.4 mb - 0.00 in0.0 mm 0.00 in0.0 mm
01:30 AM 15.4°F-9.2°C 7.0°F-13.9°C 69% 6.9 mph ESE11.1 kmh ESE 11.5 mph18.5 kmh 30.34 in1027.4 mb - 0.00 in0.0 mm 0.00 in0.0 mm
01:40 AM 15.4°F-9.2°C 7.0°F-13.9°C 69% 6.9 mph SE11.1 kmh SE 12.7 mph20.4 kmh 30.34 in1027.4 mb - 0.00 in0.0 mm 0.00 in0.0 mm
01:50 AM 15.3°F-9.3°C 7.0°F-13.9°C 69% 3.5 mph SE5.6 kmh SE 8.1 mph13.0 kmh 30.33 in1027.1 mb - 0.00 in0.0 mm 0.00 in0.0 mm
02:00 AM 15.6°F-9.1°C 7.2°F-13.8°C 69% 10.4 mph ESE16.7 kmh ESE 16.1 mph25.9 kmh 30.32 in1026.8 mb - 0.00 in0.0 mm 0.00 in0.0 mm
02:10 AM 15.7°F-9.1°C 7.3°F-13.7°C 69% 5.8 mph SE9.3 kmh SE 9.2 mph14.8 kmh 30.32 in1026.8 mb - 0.00 in0.0 mm 0.00 in0.0 mm
02:20 AM 16.0°F-8.9°C 7.6°F-13.6°C 69% 3.5 mph SE5.6 kmh SE 6.9 mph11.1 kmh 30.31 in1026.4 mb - 0.00 in0.0 mm 0.00 in0.0 mm
02:30 AM 16.2°F-8.8°C 7.8°F-13.4°C 69% 5.8 mph SE9.3 kmh SE 8.1 mph13.0 kmh 30.31 in1026.4 mb - 0.00 in0.0 mm 0.00 in0.0 mm
02:40 AM 16.1°F-8.8°C 7.7°F-13.5°C 69% 4.6 mph SE7.4 kmh SE 10.4 mph16.7 kmh 30.30 in1026.1 mb - 0.00 in0.0 mm 0.00 in0.0 mm
02:50 AM 16.3°F-8.7°C 7.9°F-13.4°C 69% 6.9 mph SE11.1 kmh SE 13.8 mph22.2 kmh 30.30 in1026.1 mb - 0.00 in0.0 mm 0.00 in0.0 mm
03:00 AM 16.5°F-8.6°C 8.1°F-13.3°C 69% 6.9 mph SE11.1 kmh SE 18.4 mph29.6 kmh 30.30 in1026.1 mb - 0.00 in0.0 mm 0.00 in0.0 mm
03:10 AM 16.8°F-8.4°C 8.3°F-13.2°C 69% 6.9 mph SE11.1 kmh SE 10.4 mph16.7 kmh 30.29 in1025.7 mb - 0.00 in0.0 mm 0.00 in0.0 mm
03:20 AM 16.7°F-8.5°C 8.3°F-13.2°C 69% 6.9 mph SE11.1 kmh SE 11.5 mph18.5 kmh 30.29 in1025.7 mb - 0.00 in0.0 mm 0.00 in0.0 mm
03:30 AM 16.8°F-8.4°C 8.4°F-13.1°C 69% 5.8 mph SE9.3 kmh SE 10.4 mph16.7 kmh 30.29 in1025.7 mb - 0.00 in0.0 mm 0.00 in0.0 mm
03:40 AM 17.0°F-8.3°C 8.9°F-12.8°C 70% 6.9 mph SE11.1 kmh SE 11.5 mph18.5 kmh 30.28 in1025.4 mb - 0.00 in0.0 mm 0.00 in0.0 mm
03:50 AM 17.4°F-8.1°C 9.0°F-12.8°C 69% 6.9 mph SE11.1 kmh SE 15.0 mph24.1 kmh 30.28 in1025.4 mb - 0.00 in0.0 mm 0.00 in0.0 mm
04:00 AM 17.5°F-8.1°C 9.4°F-12.6°C 70% 5.8 mph ESE9.3 kmh ESE 15.0 mph24.1 kmh 30.27 in1025.1 mb - 0.00 in0.0 mm 0.00 in0.0 mm
04:10 AM 17.6°F-8.0°C 9.5°F-12.5°C 70% 4.6 mph SE7.4 kmh SE 11.5 mph18.5 kmh 30.27 in1025.1 mb - 0.00 in0.0 mm 0.00 in0.0 mm
04:20 AM 17.7°F-7.9°C 9.3°F-12.6°C 69% 5.8 mph SE9.3 kmh SE 9.2 mph14.8 kmh 30.27 in1025.1 mb - 0.00 in0.0 mm 0.00 in0.0 mm
04:30 AM 18.1°F-7.7°C 9.6°F-12.4°C 69% 5.8 mph SE9.3 kmh SE 11.5 mph18.5 kmh 30.26 in1024.7 mb - 0.00 in0.0 mm 0.00 in0.0 mm
04:40 AM 18.5°F-7.5°C 10.0°F-12.2°C 69% 5.8 mph SE9.3 kmh SE 12.7 mph20.4 kmh 30.27 in1025.1 mb - 0.00 in0.0 mm 0.00 in0.0 mm
04:50 AM 18.8°F-7.3°C 10.0°F-12.2°C 68% 6.9 mph SE11.1 kmh SE 10.4 mph16.7 kmh 30.27 in1025.1 mb - 0.00 in0.0 mm 0.00 in0.0 mm
05:00 AM 18.7°F-7.4°C 10.2°F-12.1°C 69% 6.9 mph SE11.1 kmh SE 9.2 mph14.8 kmh 30.26 in1024.7 mb - 0.00 in0.0 mm 0.00 in0.0 mm
05:10 AM 18.6°F-7.4°C 10.1°F-12.2°C 69% 4.6 mph SE7.4 kmh SE 8.1 mph13.0 kmh 30.26 in1024.7 mb - 0.00 in0.0 mm 0.00 in0.0 mm
05:20 AM 18.8°F-7.3°C 10.3°F-12.1°C 69% 5.8 mph SE9.3 kmh SE 6.9 mph11.1 kmh 30.26 in1024.7 mb - 0.00 in0.0 mm 0.00 in0.0 mm
05:30 AM 18.9°F-7.3°C 10.4°F-12.0°C 69% 5.8 mph SE9.3 kmh SE 11.5 mph18.5 kmh 30.25 in1024.4 mb - 0.00 in0.0 mm 0.00 in0.0 mm
05:40 AM 18.9°F-7.3°C 10.4°F-12.0°C 69% 5.8 mph SE9.3 kmh SE 8.1 mph13.0 kmh 30.24 in1024.0 mb - 0.00 in0.0 mm 0.00 in0.0 mm
05:50 AM 19.1°F-7.2°C 10.6°F-11.9°C 69% 6.9 mph SE11.1 kmh SE 9.2 mph14.8 kmh 30.24 in1024.0 mb - 0.00 in0.0 mm 0.00 in0.0 mm
06:00 AM 19.1°F-7.2°C 10.6°F-11.9°C 69% 5.8 mph SE9.3 kmh SE 11.5 mph18.5 kmh 30.23 in1023.7 mb - 0.00 in0.0 mm 0.00 in0.0 mm
06:10 AM 19.2°F-7.1°C 11.0°F-11.7°C 70% 6.9 mph ESE11.1 kmh ESE 10.4 mph16.7 kmh 30.23 in1023.7 mb - 0.00 in0.0 mm 0.00 in0.0 mm
06:20 AM 19.5°F-6.9°C 11.3°F-11.5°C 70% 6.9 mph SE11.1 kmh SE 12.7 mph20.4 kmh 30.22 in1023.4 mb - 0.00 in0.0 mm 0.00 in0.0 mm
06:30 AM 19.7°F-6.8°C 11.5°F-11.4°C 70% 8.1 mph SE13.0 kmh SE 13.8 mph22.2 kmh 30.21 in1023.0 mb - 0.00 in0.0 mm 0.00 in0.0 mm
06:40 AM 20.2°F-6.6°C 11.6°F-11.3°C 69% 5.8 mph SE9.3 kmh SE 10.4 mph16.7 kmh 30.21 in1023.0 mb - 0.00 in0.0 mm 0.00 in0.0 mm
06:50 AM 20.6°F-6.3°C 11.7°F-11.3°C 68% 6.9 mph SE11.1 kmh SE 16.1 mph25.9 kmh 30.20 in1022.7 mb - 0.00 in0.0 mm 0.00 in0.0 mm
07:00 AM 20.6°F-6.3°C 11.7°F-11.3°C 68% 5.8 mph SSE9.3 kmh SSE 10.4 mph16.7 kmh 30.21 in1023.0 mb - 0.00 in0.0 mm 0.00 in0.0 mm
07:10 AM 20.9°F-6.2°C 12.3°F-10.9°C 69% 8.1 mph SSE13.0 kmh SSE 11.5 mph18.5 kmh 30.21 in1023.0 mb - 0.00 in0.0 mm 0.00 in0.0 mm
07:20 AM 21.4°F-5.9°C 12.4°F-10.9°C 68% 5.8 mph SE9.3 kmh SE 12.7 mph20.4 kmh 30.21 in1023.0 mb - 0.00 in0.0 mm 0.00 in0.0 mm
07:30 AM 21.7°F-5.7°C 13.1°F-10.5°C 69% 4.6 mph SE7.4 kmh SE 8.1 mph13.0 kmh 30.20 in1022.7 mb - 0.00 in0.0 mm 0.00 in0.0 mm
07:40 AM 21.7°F-5.7°C 13.1°F-10.5°C 69% 4.6 mph SE7.4 kmh SE 8.1 mph13.0 kmh 30.19 in1022.4 mb - 0.00 in0.0 mm 0.00 in0.0 mm
07:50 AM 22.0°F-5.6°C 13.4°F-10.3°C 69% 4.6 mph SSE7.4 kmh SSE 4.6 mph7.4 kmh 30.18 in1022.0 mb - 0.00 in0.0 mm 0.00 in0.0 mm
08:00 AM 22.2°F-5.4°C 13.6°F-10.2°C 69% 6.9 mph SE11.1 kmh SE 13.8 mph22.2 kmh 30.18 in1022.0 mb - 0.00 in0.0 mm 0.00 in0.0 mm
08:10 AM 22.4°F-5.3°C 13.8°F-10.1°C 69% 5.8 mph SE9.3 kmh SE 10.4 mph16.7 kmh 30.17 in1021.7 mb - 0.00 in0.0 mm 0.00 in0.0 mm
08:20 AM 22.5°F-5.3°C 14.2°F-9.9°C 70% 6.9 mph SE11.1 kmh SE 11.5 mph18.5 kmh 30.17 in1021.7 mb - 0.00 in0.0 mm 0.00 in0.0 mm
08:30 AM 22.5°F-5.3°C 14.5°F-9.7°C 71% 5.8 mph SE9.3 kmh SE 11.5 mph18.5 kmh 30.18 in1022.0 mb - 0.00 in0.0 mm 0.00 in0.0 mm
08:40 AM 22.5°F-5.3°C 15.7°F-9.1°C 75% 5.8 mph SSE9.3 kmh SSE 10.4 mph16.7 kmh 30.18 in1022.0 mb - 0.00 in0.0 mm 0.00 in0.0 mm
08:50 AM 22.4°F-5.3°C 16.6°F-8.6°C 78% 5.8 mph SSE9.3 kmh SSE 9.2 mph14.8 kmh 30.17 in1021.7 mb - 0.00 in0.0 mm 0.00 in0.0 mm
09:00 AM 22.5°F-5.3°C 17.3°F-8.2°C 80% 6.9 mph S11.1 kmh S 11.5 mph18.5 kmh 30.16 in1021.3 mb - 0.00 in0.0 mm 0.00 in0.0 mm
09:10 AM 22.7°F-5.2°C 18.0°F-7.8°C 82% 8.1 mph S13.0 kmh S 11.5 mph18.5 kmh 30.16 in1021.3 mb - 0.00 in0.0 mm 0.00 in0.0 mm
09:20 AM 23.1°F-4.9°C 18.7°F-7.4°C 83% 6.9 mph SE11.1 kmh SE 11.5 mph18.5 kmh 30.15 in1021.0 mb - 0.00 in0.0 mm 0.00 in0.0 mm
09:30 AM 23.5°F-4.7°C 19.4°F-7.0°C 84% 8.1 mph S13.0 kmh S 13.8 mph22.2 kmh 30.15 in1021.0 mb - 0.00 in0.0 mm 0.00 in0.0 mm
09:40 AM 24.0°F-4.4°C 20.1°F-6.6°C 85% 5.8 mph SSE9.3 kmh SSE 11.5 mph18.5 kmh 30.15 in1021.0 mb - 0.00 in0.0 mm 0.00 in0.0 mm
09:50 AM 24.7°F-4.1°C 20.9°F-6.2°C 85% 8.1 mph S13.0 kmh S 10.4 mph16.7 kmh 30.15 in1021.0 mb - 0.00 in0.0 mm 0.00 in0.0 mm
10:00 AM 25.3°F-3.7°C 21.4°F-5.9°C 85% 6.9 mph S11.1 kmh S 11.5 mph18.5 kmh 30.15 in1021.0 mb - 0.00 in0.0 mm 0.00 in0.0 mm
10:10 AM 25.7°F-3.5°C 21.8°F-5.7°C 85% 4.6 mph SSE7.4 kmh SSE 8.1 mph13.0 kmh 30.14 in1020.7 mb - 0.00 in0.0 mm 0.00 in0.0 mm
10:20 AM 26.1°F-3.3°C 22.2°F-5.4°C 85% 8.1 mph SSE13.0 kmh SSE 6.9 mph11.1 kmh 30.13 in1020.3 mb - 0.00 in0.0 mm 0.00 in0.0 mm
10:30 AM 26.6°F-3.0°C 22.7°F-5.2°C 85% 8.1 mph S13.0 kmh S 12.7 mph20.4 kmh 30.13 in1020.3 mb - 0.00 in0.0 mm 0.00 in0.0 mm
10:40 AM 27.0°F-2.8°C 22.8°F-5.1°C 84% 5.8 mph S9.3 kmh S 11.5 mph18.5 kmh 30.13 in1020.3 mb - 0.00 in0.0 mm 0.00 in0.0 mm
10:50 AM 27.4°F-2.6°C 23.2°F-4.9°C 84% 5.8 mph S9.3 kmh S 16.1 mph25.9 kmh 30.12 in1020.0 mb - 0.00 in0.0 mm 0.00 in0.0 mm
11:00 AM 27.8°F-2.3°C 23.3°F-4.8°C 83% 6.9 mph S11.1 kmh S 12.7 mph20.4 kmh 30.12 in1020.0 mb - 0.00 in0.0 mm 0.00 in0.0 mm
11:10 AM 28.2°F-2.1°C 23.7°F-4.6°C 83% 3.5 mph SSE5.6 kmh SSE 6.9 mph11.1 kmh 30.11 in1019.6 mb - 0.00 in0.0 mm 0.00 in0.0 mm
11:20 AM 28.6°F-1.9°C 23.8°F-4.6°C 82% 4.6 mph S7.4 kmh S 8.1 mph13.0 kmh 30.10 in1019.3 mb - 0.00 in0.0 mm 0.00 in0.0 mm
11:30 AM 29.1°F-1.6°C 24.0°F-4.4°C 81% 4.6 mph S7.4 kmh S 5.8 mph9.3 kmh 30.09 in1019.0 mb - 0.00 in0.0 mm 0.00 in0.0 mm
11:40 AM 29.4°F-1.4°C 24.0°F-4.4°C 80% 5.8 mph S9.3 kmh S 8.1 mph13.0 kmh 30.08 in1018.6 mb - 0.00 in0.0 mm 0.00 in0.0 mm
11:50 AM 29.7°F-1.3°C 24.3°F-4.3°C 80% 9.2 mph S14.8 kmh S 15.0 mph24.1 kmh 30.08 in1018.6 mb - 0.00 in0.0 mm 0.00 in0.0 mm
12:00 PM 30.0°F-1.1°C 24.3°F-4.3°C 79% 5.8 mph S9.3 kmh S 15.0 mph24.1 kmh 30.07 in1018.3 mb - 0.00 in0.0 mm 0.00 in0.0 mm
12:10 PM 30.2°F-1.0°C 24.2°F-4.3°C 78% 6.9 mph S11.1 kmh S 9.2 mph14.8 kmh 30.07 in1018.3 mb - 0.00 in0.0 mm 0.00 in0.0 mm
12:20 PM 30.3°F-0.9°C 24.6°F-4.1°C 79% 5.8 mph S9.3 kmh S 8.1 mph13.0 kmh 30.07 in1018.3 mb - 0.00 in0.0 mm 0.00 in0.0 mm
12:30 PM 30.4°F-0.9°C 24.7°F-4.1°C 79% 5.8 mph SSE9.3 kmh SSE 10.4 mph16.7 kmh 30.06 in1017.9 mb - 0.00 in0.0 mm 0.00 in0.0 mm
12:40 PM 30.7°F-0.7°C 24.9°F-3.9°C 79% 4.6 mph S7.4 kmh S 6.9 mph11.1 kmh 30.06 in1017.9 mb - 0.00 in0.0 mm 0.00 in0.0 mm
12:50 PM 30.9°F-0.6°C 24.8°F-4.0°C 78% 5.8 mph S9.3 kmh S 8.1 mph13.0 kmh 30.05 in1017.6 mb - 0.00 in0.0 mm 0.00 in0.0 mm
01:00 PM 31.1°F-0.5°C 25.0°F-3.9°C 78% 8.1 mph S13.0 kmh S 10.4 mph16.7 kmh 30.05 in1017.6 mb - 0.00 in0.0 mm 0.00 in0.0 mm
01:10 PM 31.2°F-0.4°C 25.1°F-3.8°C 78% 3.5 mph S5.6 kmh S 5.8 mph9.3 kmh 30.05 in1017.6 mb - 0.00 in0.0 mm 0.00 in0.0 mm
01:20 PM 31.0°F-0.6°C 25.6°F-3.6°C 80% 3.5 mph S5.6 kmh S 9.2 mph14.8 kmh 30.05 in1017.6 mb - 0.00 in0.0 mm 0.00 in0.0 mm
01:30 PM 31.0°F-0.6°C 26.2°F-3.2°C 82% 5.8 mph SSW9.3 kmh SSW 11.5 mph18.5 kmh 30.04 in1017.3 mb - 0.00 in0.0 mm 0.00 in0.0 mm
01:40 PM 31.2°F-0.4°C 26.6°F-3.0°C 83% 5.8 mph S9.3 kmh S 8.1 mph13.0 kmh 30.03 in1016.9 mb - 0.00 in0.0 mm 0.00 in0.0 mm
01:50 PM 31.3°F-0.4°C 27.0°F-2.8°C 84% 4.6 mph S7.4 kmh S 5.8 mph9.3 kmh 30.03 in1016.9 mb - 0.00 in0.0 mm 0.00 in0.0 mm
02:00 PM 31.4°F-0.3°C 27.4°F-2.6°C 85% 4.6 mph S7.4 kmh S 5.8 mph9.3 kmh 30.02 in1016.6 mb - 0.00 in0.0 mm 0.00 in0.0 mm
02:10 PM 31.5°F-0.3°C 27.5°F-2.5°C 85% 6.9 mph S11.1 kmh S 9.2 mph14.8 kmh 30.02 in1016.6 mb - 0.00 in0.0 mm 0.00 in0.0 mm
02:20 PM 31.6°F-0.2°C 27.7°F-2.4°C 85% 5.8 mph S9.3 kmh S 9.2 mph14.8 kmh 30.02 in1016.6 mb - 0.00 in0.0 mm 0.00 in0.0 mm
02:30 PM 31.8°F-0.1°C 27.8°F-2.3°C 85% 4.6 mph S7.4 kmh S 10.4 mph16.7 kmh 30.02 in1016.6 mb - 0.00 in0.0 mm 0.00 in0.0 mm
02:40 PM 31.9°F-0.1°C 28.2°F-2.1°C 86% 6.9 mph S11.1 kmh S 9.2 mph14.8 kmh 30.02 in1016.6 mb - 0.00 in0.0 mm 0.00 in0.0 mm
02:50 PM 32.0°F0.0°C 28.3°F-2.1°C 86% 4.6 mph S7.4 kmh S 5.8 mph9.3 kmh 30.02 in1016.6 mb - 0.01 in0.3 mm 0.01 in0.3 mm
03:00 PM 32.0°F0.0°C 28.6°F-1.9°C 87% 3.5 mph S5.6 kmh S 4.6 mph7.4 kmh 30.02 in1016.6 mb - 0.00 in0.0 mm 0.01 in0.3 mm
03:10 PM 32.1°F0.1°C 28.9°F-1.7°C 88% 4.6 mph SSW7.4 kmh SSW 6.9 mph11.1 kmh 30.02 in1016.6 mb - 0.01 in0.3 mm 0.02 in0.5 mm
03:20 PM 32.2°F0.1°C 29.3°F-1.5°C 89% 3.5 mph S5.6 kmh S 9.2 mph14.8 kmh 30.03 in1016.9 mb - 0.01 in0.3 mm 0.03 in0.8 mm
03:30 PM 32.3°F0.2°C 29.4°F-1.4°C 89% 2.3 mph S3.7 kmh S 6.9 mph11.1 kmh 30.02 in1016.6 mb - 0.02 in0.5 mm 0.04 in1.0 mm
03:40 PM 32.4°F0.2°C 29.8°F-1.2°C 90% 3.5 mph S5.6 kmh S 3.5 mph5.6 kmh 30.02 in1016.6 mb - 0.01 in0.3 mm 0.05 in1.3 mm
03:50 PM 32.5°F0.3°C 29.9°F-1.2°C 90% 3.5 mph S5.6 kmh S 5.8 mph9.3 kmh 30.01 in1016.3 mb - 0.01 in0.3 mm 0.06 in1.5 mm
04:00 PM 32.6°F0.3°C 30.0°F-1.1°C 90% 2.3 mph S3.7 kmh S 4.6 mph7.4 kmh 30.01 in1016.3 mb - 0.01 in0.3 mm 0.07 in1.8 mm
04:10 PM 32.7°F0.4°C 30.1°F-1.1°C 90% 3.5 mph S5.6 kmh S 4.6 mph7.4 kmh 30.01 in1016.3 mb - 0.01 in0.3 mm 0.08 in2.0 mm
04:20 PM 32.8°F0.4°C 30.2°F-1.0°C 90% 3.5 mph S5.6 kmh S 8.1 mph13.0 kmh 30.01 in1016.3 mb - 0.01 in0.3 mm 0.09 in2.3 mm
04:30 PM 32.9°F0.5°C 30.5°F-0.8°C 91% 2.3 mph S3.7 kmh S 4.6 mph7.4 kmh 30.01 in1016.3 mb - 0.00 in0.0 mm 0.09 in2.3 mm
04:40 PM 32.9°F0.5°C 30.6°F-0.8°C 91% 3.5 mph S5.6 kmh S 4.6 mph7.4 kmh 30.01 in1016.3 mb - 0.01 in0.3 mm 0.10 in2.5 mm
04:50 PM 33.0°F0.6°C 30.7°F-0.7°C 91% 3.5 mph S5.6 kmh S 4.6 mph7.4 kmh 30.00 in1015.9 mb - 0.01 in0.3 mm 0.11 in2.8 mm
05:00 PM 33.1°F0.6°C 30.8°F-0.7°C 91% 3.5 mph SSE5.6 kmh SSE 3.5 mph5.6 kmh 30.00 in1015.9 mb - 0.00 in0.0 mm 0.11 in2.8 mm
05:10 PM 33.1°F0.6°C 30.8°F-0.7°C 91% 2.3 mph S3.7 kmh S 3.5 mph5.6 kmh 30.00 in1015.9 mb - 0.00 in0.0 mm 0.11 in2.8 mm
05:20 PM 33.2°F0.7°C 30.9°F-0.6°C 91% 2.3 mph S3.7 kmh S 4.6 mph7.4 kmh 30.00 in1015.9 mb - 0.01 in0.3 mm 0.12 in3.0 mm
05:30 PM 33.3°F0.7°C 30.9°F-0.6°C 91% 1.2 mph S1.9 kmh S 3.5 mph5.6 kmh 30.00 in1015.9 mb - 0.00 in0.0 mm 0.12 in3.0 mm
05:40 PM 33.3°F0.7°C 31.0°F-0.6°C 91% 1.2 mph S1.9 kmh S 2.3 mph3.7 kmh 30.00 in1015.9 mb - 0.00 in0.0 mm 0.12 in3.0 mm
05:50 PM 33.3°F0.7°C 31.0°F-0.6°C 91% 2.3 mph S3.7 kmh S 2.3 mph3.7 kmh 30.00 in1015.9 mb - 0.01 in0.3 mm 0.13 in3.3 mm
06:00 PM 33.3°F0.7°C 31.0°F-0.6°C 91% 2.3 mph S3.7 kmh S 3.5 mph5.6 kmh 30.00 in1015.9 mb - 0.00 in0.0 mm 0.13 in3.3 mm
06:10 PM 33.4°F0.8°C 31.1°F-0.5°C 91% 1.2 mph S1.9 kmh S 3.5 mph5.6 kmh 30.00 in1015.9 mb - 0.01 in0.3 mm 0.14 in3.6 mm
06:20 PM 33.5°F0.8°C 31.4°F-0.3°C 92% 3.5 mph S5.6 kmh S 4.6 mph7.4 kmh 30.00 in1015.9 mb - 0.00 in0.0 mm 0.14 in3.6 mm
06:30 PM 33.6°F0.9°C 31.5°F-0.3°C 92% 2.3 mph S3.7 kmh S 4.6 mph7.4 kmh 30.00 in1015.9 mb - 0.00 in0.0 mm 0.14 in3.6 mm
06:40 PM 33.7°F0.9°C 31.6°F-0.2°C 92% 2.3 mph S3.7 kmh S 3.5 mph5.6 kmh 30.00 in1015.9 mb - 0.01 in0.3 mm 0.15 in3.8 mm
06:50 PM 33.8°F1.0°C 31.7°F-0.2°C 92% 2.3 mph S3.7 kmh S 4.6 mph7.4 kmh 29.99 in1015.6 mb - 0.01 in0.3 mm 0.16 in4.1 mm
07:00 PM 33.9°F1.1°C 31.8°F-0.1°C 92% 4.6 mph S7.4 kmh S 5.8 mph9.3 kmh 29.98 in1015.2 mb - 0.00 in0.0 mm 0.16 in4.1 mm
07:10 PM 33.9°F1.1°C 31.8°F-0.1°C 92% 2.3 mph S3.7 kmh S 3.5 mph5.6 kmh 29.98 in1015.2 mb - 0.01 in0.3 mm 0.17 in4.3 mm
07:20 PM 33.9°F1.1°C 31.8°F-0.1°C 92% 3.5 mph S5.6 kmh S 6.9 mph11.1 kmh 29.98 in1015.2 mb - 0.00 in0.0 mm 0.17 in4.3 mm
07:30 PM 33.9°F1.1°C 31.8°F-0.1°C 92% 4.6 mph S7.4 kmh S 10.4 mph16.7 kmh 29.97 in1014.9 mb - 0.01 in0.3 mm 0.18 in4.6 mm
07:40 PM 34.0°F1.1°C 32.0°F0.0°C 92% 2.3 mph S3.7 kmh S 5.8 mph9.3 kmh 29.98 in1015.2 mb - 0.00 in0.0 mm 0.18 in4.6 mm
07:50 PM 34.1°F1.2°C 32.0°F0.0°C 92% 4.6 mph S7.4 kmh S 6.9 mph11.1 kmh 29.98 in1015.2 mb - 0.01 in0.3 mm 0.19 in4.8 mm
08:00 PM 34.3°F1.3°C 32.2°F0.1°C 92% 3.5 mph S5.6 kmh S 4.6 mph7.4 kmh 29.97 in1014.9 mb - 0.01 in0.3 mm 0.20 in5.1 mm
08:10 PM 34.3°F1.3°C 32.2°F0.1°C 92% 2.3 mph SSE3.7 kmh SSE 4.6 mph7.4 kmh 29.96 in1014.6 mb - 0.00 in0.0 mm 0.20 in5.1 mm
08:20 PM 34.4°F1.3°C 32.3°F0.2°C 92% 3.5 mph S5.6 kmh S 5.8 mph9.3 kmh 29.95 in1014.2 mb - 0.00 in0.0 mm 0.20 in5.1 mm
08:30 PM 34.5°F1.4°C 32.4°F0.2°C 92% 5.8 mph S9.3 kmh S 9.2 mph14.8 kmh 29.95 in1014.2 mb - 0.01 in0.3 mm 0.21 in5.3 mm
08:40 PM 34.6°F1.4°C 32.5°F0.3°C 92% 4.6 mph SSE7.4 kmh SSE 10.4 mph16.7 kmh 29.95 in1014.2 mb - 0.00 in0.0 mm 0.21 in5.3 mm
08:50 PM 34.6°F1.4°C 32.5°F0.3°C 92% 3.5 mph S5.6 kmh S 6.9 mph11.1 kmh 29.94 in1013.9 mb - 0.00 in0.0 mm 0.21 in5.3 mm
09:00 PM 34.7°F1.5°C 32.6°F0.3°C 92% 5.8 mph S9.3 kmh S 8.1 mph13.0 kmh 29.93 in1013.5 mb - 0.00 in0.0 mm 0.21 in5.3 mm
09:10 PM 34.8°F1.6°C 32.7°F0.4°C 92% 3.5 mph S5.6 kmh S 4.6 mph7.4 kmh 29.93 in1013.5 mb - 0.01 in0.3 mm 0.22 in5.6 mm
09:20 PM 34.8°F1.6°C 32.7°F0.4°C 92% 3.5 mph S5.6 kmh S 6.9 mph11.1 kmh 29.92 in1013.2 mb - 0.00 in0.0 mm 0.22 in5.6 mm
09:30 PM 34.8°F1.6°C 32.7°F0.4°C 92% 3.5 mph SSE5.6 kmh SSE 4.6 mph7.4 kmh 29.92 in1013.2 mb - 0.01 in0.3 mm 0.23 in5.8 mm
09:40 PM 34.6°F1.4°C 32.5°F0.3°C 92% 3.5 mph S5.6 kmh S 5.8 mph9.3 kmh 29.92 in1013.2 mb - 0.01 in0.3 mm 0.23 in5.8 mm
09:50 PM 34.7°F1.5°C 32.6°F0.3°C 92% 3.5 mph S5.6 kmh S 4.6 mph7.4 kmh 29.91 in1012.9 mb - 0.01 in0.3 mm 0.24 in6.1 mm
10:00 PM 34.8°F1.6°C 32.7°F0.4°C 92% 3.5 mph SSE5.6 kmh SSE 3.5 mph5.6 kmh 29.91 in1012.9 mb - 0.00 in0.0 mm 0.24 in6.1 mm
10:10 PM 34.9°F1.6°C 32.8°F0.4°C 92% 3.5 mph S5.6 kmh S 5.8 mph9.3 kmh 29.91 in1012.9 mb - 0.00 in0.0 mm 0.24 in6.1 mm
10:20 PM 34.9°F1.6°C 32.8°F0.4°C 92% 2.3 mph S3.7 kmh S 5.8 mph9.3 kmh 29.90 in1012.5 mb - 0.00 in0.0 mm 0.24 in6.1 mm
10:30 PM 35.0°F1.7°C 32.9°F0.5°C 92% 4.6 mph S7.4 kmh S 6.9 mph11.1 kmh 29.90 in1012.5 mb - 0.00 in0.0 mm 0.24 in6.1 mm
10:40 PM 35.0°F1.7°C 32.9°F0.5°C 92% 3.5 mph S5.6 kmh S 3.5 mph5.6 kmh 29.89 in1012.2 mb - 0.01 in0.3 mm 0.25 in6.4 mm
10:50 PM 35.1°F1.7°C 33.0°F0.6°C 92% 3.5 mph S5.6 kmh S 5.8 mph9.3 kmh 29.89 in1012.2 mb - 0.00 in0.0 mm 0.25 in6.4 mm
11:00 PM 35.2°F1.8°C 33.1°F0.6°C 92% 3.5 mph S5.6 kmh S 5.8 mph9.3 kmh 29.89 in1012.2 mb - 0.00 in0.0 mm 0.25 in6.4 mm
11:10 PM 35.2°F1.8°C 33.1°F0.6°C 92% 3.5 mph S5.6 kmh S 3.5 mph5.6 kmh 29.89 in1012.2 mb - 0.00 in0.0 mm 0.25 in6.4 mm
11:20 PM 35.2°F1.8°C 33.1°F0.6°C 92% 3.5 mph S5.6 kmh S 5.8 mph9.3 kmh 29.88 in1011.9 mb - 0.00 in0.0 mm 0.25 in6.4 mm
11:30 PM 35.2°F1.8°C 33.1°F0.6°C 92% 3.5 mph S5.6 kmh S 5.8 mph9.3 kmh 29.88 in1011.9 mb - 0.01 in0.3 mm 0.26 in6.6 mm
11:40 PM 35.3°F1.8°C 33.2°F0.7°C 92% 2.3 mph S3.7 kmh S 4.6 mph7.4 kmh 29.88 in1011.9 mb - 0.00 in0.0 mm 0.26 in6.6 mm
11:50 PM 35.3°F1.8°C 33.2°F0.7°C 92% 2.3 mph SSE3.7 kmh SSE 4.6 mph7.4 kmh 29.86 in1011.2 mb - 0.00 in0.0 mm 0.26 in6.6 mm